sensor_id;sensor_type;location;lat;lon;timestamp;temperature;humidity
31733;DHT22;18312;51.486;7.144;2023-05-20T00:00:12;10.90;95.30
31733;DHT22;18312;51.486;7.144;2023-05-20T00:02:39;10.90;95.80
31733;DHT22;18312;51.486;7.144;2023-05-20T00:05:06;10.90;95.90
31733;DHT22;18312;51.486;7.144;2023-05-20T00:07:33;10.90;96.10
31733;DHT22;18312;51.486;7.144;2023-05-20T00:10:01;10.80;96.30
31733;DHT22;18312;51.486;7.144;2023-05-20T00:12:28;10.80;96.60
31733;DHT22;18312;51.486;7.144;2023-05-20T00:14:55;10.80;96.60
31733;DHT22;18312;51.486;7.144;2023-05-20T00:17:21;10.90;96.20
31733;DHT22;18312;51.486;7.144;2023-05-20T00:19:50;11.00;96.10
31733;DHT22;18312;51.486;7.144;2023-05-20T00:22:16;11.10;96.00
31733;DHT22;18312;51.486;7.144;2023-05-20T00:24:43;11.10;95.50
31733;DHT22;18312;51.486;7.144;2023-05-20T00:27:11;11.00;95.90
31733;DHT22;18312;51.486;7.144;2023-05-20T00:29:38;11.00;96.00
31733;DHT22;18312;51.486;7.144;2023-05-20T00:32:05;10.90;96.40
31733;DHT22;18312;51.486;7.144;2023-05-20T00:34:32;10.90;96.20
31733;DHT22;18312;51.486;7.144;2023-05-20T00:36:59;11.00;96.70
31733;DHT22;18312;51.486;7.144;2023-05-20T00:39:26;11.00;96.60
31733;DHT22;18312;51.486;7.144;2023-05-20T00:41:54;10.90;96.50
31733;DHT22;18312;51.486;7.144;2023-05-20T00:44:22;10.90;96.70
31733;DHT22;18312;51.486;7.144;2023-05-20T00:46:51;10.80;97.00
31733;DHT22;18312;51.486;7.144;2023-05-20T00:49:18;10.90;96.60
31733;DHT22;18312;51.486;7.144;2023-05-20T00:51:45;10.80;96.80
31733;DHT22;18312;51.486;7.144;2023-05-20T00:54:12;10.90;96.70
31733;DHT22;18312;51.486;7.144;2023-05-20T00:56:39;10.90;96.90
31733;DHT22;18312;51.486;7.144;2023-05-20T00:59:07;10.80;96.90
31733;DHT22;18312;51.486;7.144;2023-05-20T01:01:35;10.80;97.10
31733;DHT22;18312;51.486;7.144;2023-05-20T01:04:03;10.70;97.20
31733;DHT22;18312;51.486;7.144;2023-05-20T01:06:29;10.70;97.50
31733;DHT22;18312;51.486;7.144;2023-05-20T01:08:58;10.60;97.80
31733;DHT22;18312;51.486;7.144;2023-05-20T01:11:28;10.50;98.00
31733;DHT22;18312;51.486;7.144;2023-05-20T01:14:02;10.50;98.10
31733;DHT22;18312;51.486;7.144;2023-05-20T01:16:31;10.50;98.40
31733;DHT22;18312;51.486;7.144;2023-05-20T01:19:01;10.60;98.30
31733;DHT22;18312;51.486;7.144;2023-05-20T01:21:29;10.70;98.00
31733;DHT22;18312;51.486;7.144;2023-05-20T01:23:59;10.80;98.00
31733;DHT22;18312;51.486;7.144;2023-05-20T01:26:28;10.80;97.90
31733;DHT22;18312;51.486;7.144;2023-05-20T01:28:55;10.70;98.30
31733;DHT22;18312;51.486;7.144;2023-05-20T01:31:23;10.60;98.30
31733;DHT22;18312;51.486;7.144;2023-05-20T01:33:55;10.50;98.80
31733;DHT22;18312;51.486;7.144;2023-05-20T01:36:22;10.50;98.80
31733;DHT22;18312;51.486;7.144;2023-05-20T01:38:52;10.40;99.00
31733;DHT22;18312;51.486;7.144;2023-05-20T01:41:22;10.40;99.40
31733;DHT22;18312;51.486;7.144;2023-05-20T01:43:51;10.30;99.30
31733;DHT22;18312;51.486;7.144;2023-05-20T01:46:17;10.20;99.60
31733;DHT22;18312;51.486;7.144;2023-05-20T01:48:44;10.20;99.80
31733;DHT22;18312;51.486;7.144;2023-05-20T01:51:11;10.10;99.90
31733;DHT22;18312;51.486;7.144;2023-05-20T01:53:37;10.00;99.90
31733;DHT22;18312;51.486;7.144;2023-05-20T01:56:05;10.00;99.90
31733;DHT22;18312;51.486;7.144;2023-05-20T01:58:33;10.10;99.90
31733;DHT22;18312;51.486;7.144;2023-05-20T02:00:59;10.00;99.90
31733;DHT22;18312;51.486;7.144;2023-05-20T02:03:27;10.00;99.90
31733;DHT22;18312;51.486;7.144;2023-05-20T02:05:53;9.90;99.90
31733;DHT22;18312;51.486;7.144;2023-05-20T02:08:20;9.90;99.90
31733;DHT22;18312;51.486;7.144;2023-05-20T02:10:47;9.90;99.90
31733;DHT22;18312;51.486;7.144;2023-05-20T02:13:14;9.90;99.90
31733;DHT22;18312;51.486;7.144;2023-05-20T02:15:42;10.00;99.90
31733;DHT22;18312;51.486;7.144;2023-05-20T02:18:09;10.00;99.90
31733;DHT22;18312;51.486;7.144;2023-05-20T02:20:36;9.90;99.90
31733;DHT22;18312;51.486;7.144;2023-05-20T02:23:03;9.80;99.90
31733;DHT22;18312;51.486;7.144;2023-05-20T02:25:31;9.70;99.90
31733;DHT22;18312;51.486;7.144;2023-05-20T02:27:57;9.50;99.90
31733;DHT22;18312;51.486;7.144;2023-05-20T02:30:26;9.50;99.90
31733;DHT22;18312;51.486;7.144;2023-05-20T02:32:54;9.40;99.90
31733;DHT22;18312;51.486;7.144;2023-05-20T02:35:22;9.40;99.90
31733;DHT22;18312;51.486;7.144;2023-05-20T02:37:48;9.40;99.90
31733;DHT22;18312;51.486;7.144;2023-05-20T02:40:16;9.40;99.90
31733;DHT22;18312;51.486;7.144;2023-05-20T02:42:42;9.40;99.90
31733;DHT22;18312;51.486;7.144;2023-05-20T02:45:09;9.40;99.90
31733;DHT22;18312;51.486;7.144;2023-05-20T02:47:36;9.50;99.90
31733;DHT22;18312;51.486;7.144;2023-05-20T02:50:04;9.50;99.90
31733;DHT22;18312;51.486;7.144;2023-05-20T02:52:32;9.60;99.90
31733;DHT22;18312;51.486;7.144;2023-05-20T02:54:59;9.80;99.90
31733;DHT22;18312;51.486;7.144;2023-05-20T02:57:26;9.80;99.90
31733;DHT22;18312;51.486;7.144;2023-05-20T02:59:53;9.90;99.90
31733;DHT22;18312;51.486;7.144;2023-05-20T03:02:20;10.00;99.90
31733;DHT22;18312;51.486;7.144;2023-05-20T03:04:51;10.10;99.90
31733;DHT22;18312;51.486;7.144;2023-05-20T03:07:20;10.00;99.90
31733;DHT22;18312;51.486;7.144;2023-05-20T03:09:47;10.10;99.90
31733;DHT22;18312;51.486;7.144;2023-05-20T03:12:13;10.20;99.90
31733;DHT22;18312;51.486;7.144;2023-05-20T03:14:40;10.30;99.90
31733;DHT22;18312;51.486;7.144;2023-05-20T03:17:07;10.30;99.90
31733;DHT22;18312;51.486;7.144;2023-05-20T03:19:34;10.40;99.90
31733;DHT22;18312;51.486;7.144;2023-05-20T03:22:01;10.40;99.90
31733;DHT22;18312;51.486;7.144;2023-05-20T03:24:29;10.40;99.90
31733;DHT22;18312;51.486;7.144;2023-05-20T03:26:56;10.40;99.90
31733;DHT22;18312;51.486;7.144;2023-05-20T03:29:23;10.40;99.90
31733;DHT22;18312;51.486;7.144;2023-05-20T03:31:50;10.30;99.90
31733;DHT22;18312;51.486;7.144;2023-05-20T03:34:16;10.30;99.90
31733;DHT22;18312;51.486;7.144;2023-05-20T03:36:43;10.20;99.90
31733;DHT22;18312;51.486;7.144;2023-05-20T03:39:10;10.20;99.90
31733;DHT22;18312;51.486;7.144;2023-05-20T03:41:38;10.10;99.90
31733;DHT22;18312;51.486;7.144;2023-05-20T03:44:05;10.10;99.90
31733;DHT22;18312;51.486;7.144;2023-05-20T03:46:32;10.10;99.90
31733;DHT22;18312;51.486;7.144;2023-05-20T03:48:58;10.00;99.90
31733;DHT22;18312;51.486;7.144;2023-05-20T03:51:26;10.00;99.90
31733;DHT22;18312;51.486;7.144;2023-05-20T03:53:53;10.00;99.90
31733;DHT22;18312;51.486;7.144;2023-05-20T03:56:20;10.10;99.90
31733;DHT22;18312;51.486;7.144;2023-05-20T03:58:48;10.10;99.90
31733;DHT22;18312;51.486;7.144;2023-05-20T04:01:14;10.10;99.90
31733;DHT22;18312;51.486;7.144;2023-05-20T04:03:41;10.20;99.90
31733;DHT22;18312;51.486;7.144;2023-05-20T04:06:08;10.30;99.90
31733;DHT22;18312;51.486;7.144;2023-05-20T04:08:35;10.40;99.90
31733;DHT22;18312;51.486;7.144;2023-05-20T04:11:02;10.40;99.90
31733;DHT22;18312;51.486;7.144;2023-05-20T04:13:29;10.50;99.90
31733;DHT22;18312;51.486;7.144;2023-05-20T04:15:57;10.70;99.90
31733;DHT22;18312;51.486;7.144;2023-05-20T04:18:24;10.70;99.90
31733;DHT22;18312;51.486;7.144;2023-05-20T04:20:54;10.80;99.90
31733;DHT22;18312;51.486;7.144;2023-05-20T04:23:21;10.80;99.90
31733;DHT22;18312;51.486;7.144;2023-05-20T04:25:48;10.80;99.90
31733;DHT22;18312;51.486;7.144;2023-05-20T04:28:14;10.90;99.90
31733;DHT22;18312;51.486;7.144;2023-05-20T04:30:41;11.00;99.90
31733;DHT22;18312;51.486;7.144;2023-05-20T04:33:11;11.00;99.90
31733;DHT22;18312;51.486;7.144;2023-05-20T04:35:39;11.10;99.90
31733;DHT22;18312;51.486;7.144;2023-05-20T04:38:07;11.10;99.90
31733;DHT22;18312;51.486;7.144;2023-05-20T04:40:33;11.10;99.90
31733;DHT22;18312;51.486;7.144;2023-05-20T04:43:00;11.20;99.90
31733;DHT22;18312;51.486;7.144;2023-05-20T04:45:28;11.30;99.90
31733;DHT22;18312;51.486;7.144;2023-05-20T04:47:55;11.30;99.90
31733;DHT22;18312;51.486;7.144;2023-05-20T04:50:23;11.30;99.90
31733;DHT22;18312;51.486;7.144;2023-05-20T04:52:50;11.40;99.90
31733;DHT22;18312;51.486;7.144;2023-05-20T04:55:17;11.50;99.90
31733;DHT22;18312;51.486;7.144;2023-05-20T04:57:45;11.50;99.90
31733;DHT22;18312;51.486;7.144;2023-05-20T05:00:13;11.70;99.90
31733;DHT22;18312;51.486;7.144;2023-05-20T05:02:40;12.10;99.90
31733;DHT22;18312;51.486;7.144;2023-05-20T05:05:07;12.30;99.90
31733;DHT22;18312;51.486;7.144;2023-05-20T05:07:36;12.20;99.90
31733;DHT22;18312;51.486;7.144;2023-05-20T05:10:03;12.10;99.90
31733;DHT22;18312;51.486;7.144;2023-05-20T05:12:29;12.10;99.90
31733;DHT22;18312;51.486;7.144;2023-05-20T05:14:56;12.10;99.90
31733;DHT22;18312;51.486;7.144;2023-05-20T05:17:23;12.10;99.90
31733;DHT22;18312;51.486;7.144;2023-05-20T05:19:50;12.30;99.90
31733;DHT22;18312;51.486;7.144;2023-05-20T05:22:17;12.70;99.90
31733;DHT22;18312;51.486;7.144;2023-05-20T05:24:45;12.50;99.90
31733;DHT22;18312;51.486;7.144;2023-05-20T05:27:11;12.40;99.90
31733;DHT22;18312;51.486;7.144;2023-05-20T05:29:38;12.40;99.90
31733;DHT22;18312;51.486;7.144;2023-05-20T05:32:05;12.50;99.90
31733;DHT22;18312;51.486;7.144;2023-05-20T05:34:32;12.60;99.90
31733;DHT22;18312;51.486;7.144;2023-05-20T05:36:59;12.70;99.90
31733;DHT22;18312;51.486;7.144;2023-05-20T05:39:25;12.70;99.90
31733;DHT22;18312;51.486;7.144;2023-05-20T05:41:54;12.80;99.90
31733;DHT22;18312;51.486;7.144;2023-05-20T05:44:20;13.10;99.60
31733;DHT22;18312;51.486;7.144;2023-05-20T05:46:47;13.30;99.40
31733;DHT22;18312;51.486;7.144;2023-05-20T05:49:14;13.70;98.50
31733;DHT22;18312;51.486;7.144;2023-05-20T05:51:41;15.70;93.80
31733;DHT22;18312;51.486;7.144;2023-05-20T05:54:08;17.10;90.90
31733;DHT22;18312;51.486;7.144;2023-05-20T05:56:34;17.70;87.50
31733;DHT22;18312;51.486;7.144;2023-05-20T05:59:03;18.80;82.10
31733;DHT22;18312;51.486;7.144;2023-05-20T06:01:31;18.60;79.60
31733;DHT22;18312;51.486;7.144;2023-05-20T06:03:57;18.90;78.00
31733;DHT22;18312;51.486;7.144;2023-05-20T06:06:25;19.20;76.00
31733;DHT22;18312;51.486;7.144;2023-05-20T06:08:51;19.60;74.90
31733;DHT22;18312;51.486;7.144;2023-05-20T06:11:18;20.00;73.30
31733;DHT22;18312;51.486;7.144;2023-05-20T06:13:46;19.90;72.60
31733;DHT22;18312;51.486;7.144;2023-05-20T06:16:14;19.90;71.70
31733;DHT22;18312;51.486;7.144;2023-05-20T06:18:41;19.00;72.80
31733;DHT22;18312;51.486;7.144;2023-05-20T06:21:08;18.80;73.10
31733;DHT22;18312;51.486;7.144;2023-05-20T06:23:34;19.20;73.90
31733;DHT22;18312;51.486;7.144;2023-05-20T06:26:01;19.90;71.50
31733;DHT22;18312;51.486;7.144;2023-05-20T06:28:28;19.60;72.00
31733;DHT22;18312;51.486;7.144;2023-05-20T06:30:55;18.60;75.10
31733;DHT22;18312;51.486;7.144;2023-05-20T06:33:24;17.10;79.40
31733;DHT22;18312;51.486;7.144;2023-05-20T06:35:51;16.10;83.80
31733;DHT22;18312;51.486;7.144;2023-05-20T06:38:18;15.60;86.90
31733;DHT22;18312;51.486;7.144;2023-05-20T06:40:45;15.20;89.30
31733;DHT22;18312;51.486;7.144;2023-05-20T06:43:12;14.90;90.20
31733;DHT22;18312;51.486;7.144;2023-05-20T06:45:39;15.00;90.40
31733;DHT22;18312;51.486;7.144;2023-05-20T06:48:06;15.00;90.60
31733;DHT22;18312;51.486;7.144;2023-05-20T06:50:34;14.80;90.50
31733;DHT22;18312;51.486;7.144;2023-05-20T06:53:01;14.60;91.10
31733;DHT22;18312;51.486;7.144;2023-05-20T06:55:28;14.60;91.10
31733;DHT22;18312;51.486;7.144;2023-05-20T06:57:55;14.60;91.30
31733;DHT22;18312;51.486;7.144;2023-05-20T07:00:22;14.60;91.40
31733;DHT22;18312;51.486;7.144;2023-05-20T07:02:49;14.60;91.60
31733;DHT22;18312;51.486;7.144;2023-05-20T07:05:16;14.70;91.70
31733;DHT22;18312;51.486;7.144;2023-05-20T07:07:45;15.20;91.40
31733;DHT22;18312;51.486;7.144;2023-05-20T07:10:11;15.40;90.80
31733;DHT22;18312;51.486;7.144;2023-05-20T07:12:38;15.30;90.80
31733;DHT22;18312;51.486;7.144;2023-05-20T07:15:06;15.30;90.50
31733;DHT22;18312;51.486;7.144;2023-05-20T07:17:33;15.50;90.70
31733;DHT22;18312;51.486;7.144;2023-05-20T07:19:59;15.30;91.00
31733;DHT22;18312;51.486;7.144;2023-05-20T07:22:26;15.30;91.20
31733;DHT22;18312;51.486;7.144;2023-05-20T07:24:54;15.20;91.20
31733;DHT22;18312;51.486;7.144;2023-05-20T07:27:21;15.40;91.60
31733;DHT22;18312;51.486;7.144;2023-05-20T07:29:48;15.10;91.30
31733;DHT22;18312;51.486;7.144;2023-05-20T07:32:15;15.00;91.30
31733;DHT22;18312;51.486;7.144;2023-05-20T07:34:42;14.90;91.90
31733;DHT22;18312;51.486;7.144;2023-05-20T07:37:09;15.10;91.50
31733;DHT22;18312;51.486;7.144;2023-05-20T07:39:37;15.20;91.30
31733;DHT22;18312;51.486;7.144;2023-05-20T07:42:05;15.30;91.30
31733;DHT22;18312;51.486;7.144;2023-05-20T07:44:31;15.30;91.00
31733;DHT22;18312;51.486;7.144;2023-05-20T07:46:58;15.00;91.10
31733;DHT22;18312;51.486;7.144;2023-05-20T07:49:25;15.10;91.60
31733;DHT22;18312;51.486;7.144;2023-05-20T07:51:52;15.30;91.50
31733;DHT22;18312;51.486;7.144;2023-05-20T07:54:18;15.30;91.30
31733;DHT22;18312;51.486;7.144;2023-05-20T07:56:45;15.30;91.10
31733;DHT22;18312;51.486;7.144;2023-05-20T07:59:13;15.20;91.40
31733;DHT22;18312;51.486;7.144;2023-05-20T08:01:41;15.30;91.40
31733;DHT22;18312;51.486;7.144;2023-05-20T08:04:08;15.30;91.50
31733;DHT22;18312;51.486;7.144;2023-05-20T08:06:34;15.40;91.40
31733;DHT22;18312;51.486;7.144;2023-05-20T08:09:02;15.40;91.40
31733;DHT22;18312;51.486;7.144;2023-05-20T08:11:29;15.50;91.30
31733;DHT22;18312;51.486;7.144;2023-05-20T08:13:55;15.40;91.40
31733;DHT22;18312;51.486;7.144;2023-05-20T08:16:23;15.70;91.20
31733;DHT22;18312;51.486;7.144;2023-05-20T08:18:50;15.90;91.10
31733;DHT22;18312;51.486;7.144;2023-05-20T08:21:17;16.30;90.80
31733;DHT22;18312;51.486;7.144;2023-05-20T08:23:44;16.30;90.30
31733;DHT22;18312;51.486;7.144;2023-05-20T08:26:10;16.30;90.00
31733;DHT22;18312;51.486;7.144;2023-05-20T08:28:37;16.40;89.70
31733;DHT22;18312;51.486;7.144;2023-05-20T08:31:06;16.20;90.10
31733;DHT22;18312;51.486;7.144;2023-05-20T08:33:35;16.10;90.10
31733;DHT22;18312;51.486;7.144;2023-05-20T08:36:02;16.50;90.30
31733;DHT22;18312;51.486;7.144;2023-05-20T08:38:30;16.50;90.00
31733;DHT22;18312;51.486;7.144;2023-05-20T08:40:56;16.40;90.50
31733;DHT22;18312;51.486;7.144;2023-05-20T08:43:24;16.30;90.30
31733;DHT22;18312;51.486;7.144;2023-05-20T08:45:51;16.50;90.50
31733;DHT22;18312;51.486;7.144;2023-05-20T08:48:18;16.40;89.90
31733;DHT22;18312;51.486;7.144;2023-05-20T08:50:51;16.40;89.60
31733;DHT22;18312;51.486;7.144;2023-05-20T08:53:19;16.30;89.80
31733;DHT22;18312;51.486;7.144;2023-05-20T08:55:52;16.60;89.80
31733;DHT22;18312;51.486;7.144;2023-05-20T08:58:20;16.50;90.00
31733;DHT22;18312;51.486;7.144;2023-05-20T09:00:47;16.60;89.10
31733;DHT22;18312;51.486;7.144;2023-05-20T09:03:14;16.20;89.80
31733;DHT22;18312;51.486;7.144;2023-05-20T09:05:41;16.10;90.40
31733;DHT22;18312;51.486;7.144;2023-05-20T09:08:10;16.10;90.60
31733;DHT22;18312;51.486;7.144;2023-05-20T09:10:38;16.10;90.40
31733;DHT22;18312;51.486;7.144;2023-05-20T09:13:06;16.20;90.60
31733;DHT22;18312;51.486;7.144;2023-05-20T09:15:34;16.10;90.30
31733;DHT22;18312;51.486;7.144;2023-05-20T09:18:01;16.40;90.40
31733;DHT22;18312;51.486;7.144;2023-05-20T09:20:28;16.20;90.80
31733;DHT22;18312;51.486;7.144;2023-05-20T09:22:58;16.00;90.70
31733;DHT22;18312;51.486;7.144;2023-05-20T09:25:27;16.20;90.80
31733;DHT22;18312;51.486;7.144;2023-05-20T09:27:54;16.60;90.30
31733;DHT22;18312;51.486;7.144;2023-05-20T09:30:21;16.40;90.30
31733;DHT22;18312;51.486;7.144;2023-05-20T09:32:52;16.20;90.70
31733;DHT22;18312;51.486;7.144;2023-05-20T09:35:20;16.00;90.50
31733;DHT22;18312;51.486;7.144;2023-05-20T09:37:47;15.90;90.80
31733;DHT22;18312;51.486;7.144;2023-05-20T09:40:14;16.10;90.80
31733;DHT22;18312;51.486;7.144;2023-05-20T09:42:52;16.30;91.10
31733;DHT22;18312;51.486;7.144;2023-05-20T09:45:19;16.20;90.60
31733;DHT22;18312;51.486;7.144;2023-05-20T09:47:49;16.30;90.70
31733;DHT22;18312;51.486;7.144;2023-05-20T09:50:16;16.50;90.20
31733;DHT22;18312;51.486;7.144;2023-05-20T09:52:46;16.50;90.30
31733;DHT22;18312;51.486;7.144;2023-05-20T09:55:13;16.70;90.00
31733;DHT22;18312;51.486;7.144;2023-05-20T09:57:42;16.60;90.20
31733;DHT22;18312;51.486;7.144;2023-05-20T10:00:10;16.30;90.40
31733;DHT22;18312;51.486;7.144;2023-05-20T10:02:40;16.50;90.50
31733;DHT22;18312;51.486;7.144;2023-05-20T10:05:10;16.30;90.40
31733;DHT22;18312;51.486;7.144;2023-05-20T10:10:47;16.40;90.90
31733;DHT22;18312;51.486;7.144;2023-05-20T10:13:26;16.30;90.70
31733;DHT22;18312;51.486;7.144;2023-05-20T10:16:02;16.50;90.70
31733;DHT22;18312;51.486;7.144;2023-05-20T10:18:39;16.60;90.60
31733;DHT22;18312;51.486;7.144;2023-05-20T10:21:19;16.50;90.60
31733;DHT22;18312;51.486;7.144;2023-05-20T10:23:46;16.30;91.10
31733;DHT22;18312;51.486;7.144;2023-05-20T10:26:13;16.70;90.40
31733;DHT22;18312;51.486;7.144;2023-05-20T10:28:42;16.80;90.60
31733;DHT22;18312;51.486;7.144;2023-05-20T10:31:16;16.90;90.70
31733;DHT22;18312;51.486;7.144;2023-05-20T10:33:44;17.10;90.00
31733;DHT22;18312;51.486;7.144;2023-05-20T10:36:24;17.00;90.00
31733;DHT22;18312;51.486;7.144;2023-05-20T10:38:53;17.00;90.10
31733;DHT22;18312;51.486;7.144;2023-05-20T10:41:24;17.10;90.40
31733;DHT22;18312;51.486;7.144;2023-05-20T10:44:03;16.90;90.10
31733;DHT22;18312;51.486;7.144;2023-05-20T10:46:32;16.80;90.50
31733;DHT22;18312;51.486;7.144;2023-05-20T10:49:03;16.80;90.80
31733;DHT22;18312;51.486;7.144;2023-05-20T10:51:30;17.10;90.60
31733;DHT22;18312;51.486;7.144;2023-05-20T10:53:57;16.90;90.30
31733;DHT22;18312;51.486;7.144;2023-05-20T10:56:25;17.10;90.70
31733;DHT22;18312;51.486;7.144;2023-05-20T10:58:53;17.30;90.40
31733;DHT22;18312;51.486;7.144;2023-05-20T11:01:24;17.60;90.30
31733;DHT22;18312;51.486;7.144;2023-05-20T11:03:53;17.80;90.00
31733;DHT22;18312;51.486;7.144;2023-05-20T11:06:25;17.60;90.10
31733;DHT22;18312;51.486;7.144;2023-05-20T11:08:53;17.70;90.30
31733;DHT22;18312;51.486;7.144;2023-05-20T11:11:21;18.00;89.60
31733;DHT22;18312;51.486;7.144;2023-05-20T11:13:50;18.10;89.70
31733;DHT22;18312;51.486;7.144;2023-05-20T11:16:19;18.10;89.40
31733;DHT22;18312;51.486;7.144;2023-05-20T11:18:48;18.40;88.90
31733;DHT22;18312;51.486;7.144;2023-05-20T11:21:15;17.90;89.10
31733;DHT22;18312;51.486;7.144;2023-05-20T11:23:43;17.90;89.70
31733;DHT22;18312;51.486;7.144;2023-05-20T11:26:10;18.20;90.00
31733;DHT22;18312;51.486;7.144;2023-05-20T11:28:37;18.20;89.50
31733;DHT22;18312;51.486;7.144;2023-05-20T11:31:04;18.10;90.00
31733;DHT22;18312;51.486;7.144;2023-05-20T11:33:31;18.40;89.60
31733;DHT22;18312;51.486;7.144;2023-05-20T11:36:01;18.70;88.90
31733;DHT22;18312;51.486;7.144;2023-05-20T11:38:29;18.90;89.20
31733;DHT22;18312;51.486;7.144;2023-05-20T11:40:56;18.90;87.50
31733;DHT22;18312;51.486;7.144;2023-05-20T11:43:23;18.80;88.00
31733;DHT22;18312;51.486;7.144;2023-05-20T11:45:52;18.90;87.90
31733;DHT22;18312;51.486;7.144;2023-05-20T11:48:19;19.10;87.30
31733;DHT22;18312;51.486;7.144;2023-05-20T11:50:47;19.50;85.90
31733;DHT22;18312;51.486;7.144;2023-05-20T11:53:16;19.60;86.00
31733;DHT22;18312;51.486;7.144;2023-05-20T11:55:44;19.40;85.60
31733;DHT22;18312;51.486;7.144;2023-05-20T11:58:12;19.50;84.80
31733;DHT22;18312;51.486;7.144;2023-05-20T12:00:40;19.50;85.00
31733;DHT22;18312;51.486;7.144;2023-05-20T12:03:07;19.70;84.60
31733;DHT22;18312;51.486;7.144;2023-05-20T12:05:34;20.00;84.90
31733;DHT22;18312;51.486;7.144;2023-05-20T12:08:01;19.80;83.20
31733;DHT22;18312;51.486;7.144;2023-05-20T12:10:29;19.50;83.00
31733;DHT22;18312;51.486;7.144;2023-05-20T12:12:56;19.80;83.30
31733;DHT22;18312;51.486;7.144;2023-05-20T12:15:23;19.90;82.70
31733;DHT22;18312;51.486;7.144;2023-05-20T12:17:52;20.40;82.40
31733;DHT22;18312;51.486;7.144;2023-05-20T12:20:20;20.20;81.60
31733;DHT22;18312;51.486;7.144;2023-05-20T12:22:47;20.50;80.70
31733;DHT22;18312;51.486;7.144;2023-05-20T12:25:16;20.20;80.80
31733;DHT22;18312;51.486;7.144;2023-05-20T12:27:46;20.20;82.20
31733;DHT22;18312;51.486;7.144;2023-05-20T12:30:15;20.10;82.10
31733;DHT22;18312;51.486;7.144;2023-05-20T12:32:43;19.70;82.20
31733;DHT22;18312;51.486;7.144;2023-05-20T12:35:10;19.60;82.40
31733;DHT22;18312;51.486;7.144;2023-05-20T12:37:39;19.50;83.10
31733;DHT22;18312;51.486;7.144;2023-05-20T12:40:07;19.60;82.50
31733;DHT22;18312;51.486;7.144;2023-05-20T12:42:35;19.90;82.30
31733;DHT22;18312;51.486;7.144;2023-05-20T12:45:04;19.60;81.40
31733;DHT22;18312;51.486;7.144;2023-05-20T12:47:32;19.70;80.60
31733;DHT22;18312;51.486;7.144;2023-05-20T12:50:01;19.80;81.00
31733;DHT22;18312;51.486;7.144;2023-05-20T12:52:30;19.90;81.70
31733;DHT22;18312;51.486;7.144;2023-05-20T12:54:57;19.90;82.10
31733;DHT22;18312;51.486;7.144;2023-05-20T12:57:24;19.80;81.60
31733;DHT22;18312;51.486;7.144;2023-05-20T12:59:51;19.70;81.60
31733;DHT22;18312;51.486;7.144;2023-05-20T13:02:19;19.90;81.40
31733;DHT22;18312;51.486;7.144;2023-05-20T13:04:46;20.20;81.40
31733;DHT22;18312;51.486;7.144;2023-05-20T13:07:13;20.70;80.00
31733;DHT22;18312;51.486;7.144;2023-05-20T13:09:39;20.70;78.70
31733;DHT22;18312;51.486;7.144;2023-05-20T13:12:06;20.70;78.60
31733;DHT22;18312;51.486;7.144;2023-05-20T13:14:33;20.80;79.50
31733;DHT22;18312;51.486;7.144;2023-05-20T13:17:00;20.50;77.90
31733;DHT22;18312;51.486;7.144;2023-05-20T13:19:31;20.20;79.40
31733;DHT22;18312;51.486;7.144;2023-05-20T13:21:58;20.10;78.40
31733;DHT22;18312;51.486;7.144;2023-05-20T13:24:25;20.00;78.90
31733;DHT22;18312;51.486;7.144;2023-05-20T13:26:52;19.60;80.70
31733;DHT22;18312;51.486;7.144;2023-05-20T13:29:21;19.80;80.50
31733;DHT22;18312;51.486;7.144;2023-05-20T13:31:51;19.60;80.30
31733;DHT22;18312;51.486;7.144;2023-05-20T13:34:21;19.90;81.00
31733;DHT22;18312;51.486;7.144;2023-05-20T13:37:01;20.30;79.50
31733;DHT22;18312;51.486;7.144;2023-05-20T13:39:31;20.30;80.40
31733;DHT22;18312;51.486;7.144;2023-05-20T13:41:58;20.50;78.30
31733;DHT22;18312;51.486;7.144;2023-05-20T13:44:30;20.30;78.10
31733;DHT22;18312;51.486;7.144;2023-05-20T13:46:57;20.00;79.50
31733;DHT22;18312;51.486;7.144;2023-05-20T13:49:24;19.70;79.90
31733;DHT22;18312;51.486;7.144;2023-05-20T13:51:53;19.50;80.10
31733;DHT22;18312;51.486;7.144;2023-05-20T13:54:36;19.90;80.20
31733;DHT22;18312;51.486;7.144;2023-05-20T13:57:05;20.30;79.70
31733;DHT22;18312;51.486;7.144;2023-05-20T13:59:36;20.00;79.10
31733;DHT22;18312;51.486;7.144;2023-05-20T14:02:03;19.60;78.80
31733;DHT22;18312;51.486;7.144;2023-05-20T14:04:30;19.20;79.60
31733;DHT22;18312;51.486;7.144;2023-05-20T14:07:02;19.10;80.70
31733;DHT22;18312;51.486;7.144;2023-05-20T14:09:30;19.00;80.30
31733;DHT22;18312;51.486;7.144;2023-05-20T14:11:57;19.10;80.30
31733;DHT22;18312;51.486;7.144;2023-05-20T14:14:24;19.10;80.00
31733;DHT22;18312;51.486;7.144;2023-05-20T14:16:50;19.10;80.00
31733;DHT22;18312;51.486;7.144;2023-05-20T14:19:17;19.10;80.60
31733;DHT22;18312;51.486;7.144;2023-05-20T14:21:44;19.40;80.50
31733;DHT22;18312;51.486;7.144;2023-05-20T14:24:11;19.20;80.20
31733;DHT22;18312;51.486;7.144;2023-05-20T14:26:39;19.10;80.80
31733;DHT22;18312;51.486;7.144;2023-05-20T14:29:05;18.80;80.60
31733;DHT22;18312;51.486;7.144;2023-05-20T14:31:32;18.80;80.50
31733;DHT22;18312;51.486;7.144;2023-05-20T14:34:00;19.00;80.80
31733;DHT22;18312;51.486;7.144;2023-05-20T14:36:27;18.90;80.90
31733;DHT22;18312;51.486;7.144;2023-05-20T14:38:54;19.00;80.50
31733;DHT22;18312;51.486;7.144;2023-05-20T14:41:21;19.00;80.60
31733;DHT22;18312;51.486;7.144;2023-05-20T14:43:49;19.00;80.60
31733;DHT22;18312;51.486;7.144;2023-05-20T14:46:16;19.20;80.30
31733;DHT22;18312;51.486;7.144;2023-05-20T14:48:42;19.10;80.30
31733;DHT22;18312;51.486;7.144;2023-05-20T14:51:09;19.10;80.00
31733;DHT22;18312;51.486;7.144;2023-05-20T14:53:36;19.30;80.00
31733;DHT22;18312;51.486;7.144;2023-05-20T14:56:03;19.50;80.60
31733;DHT22;18312;51.486;7.144;2023-05-20T14:58:30;19.30;80.00
31733;DHT22;18312;51.486;7.144;2023-05-20T15:00:58;19.10;80.70
31733;DHT22;18312;51.486;7.144;2023-05-20T15:03:25;18.90;81.50
31733;DHT22;18312;51.486;7.144;2023-05-20T15:05:53;19.30;81.40
31733;DHT22;18312;51.486;7.144;2023-05-20T15:08:20;19.50;82.20
31733;DHT22;18312;51.486;7.144;2023-05-20T15:10:46;19.40;80.80
31733;DHT22;18312;51.486;7.144;2023-05-20T15:13:14;19.60;80.10
31733;DHT22;18312;51.486;7.144;2023-05-20T15:15:41;20.00;79.30
31733;DHT22;18312;51.486;7.144;2023-05-20T15:18:09;20.60;78.10
31733;DHT22;18312;51.486;7.144;2023-05-20T15:20:36;21.40;77.20
31733;DHT22;18312;51.486;7.144;2023-05-20T15:23:03;21.20;76.20
31733;DHT22;18312;51.486;7.144;2023-05-20T15:25:29;20.20;77.10
31733;DHT22;18312;51.486;7.144;2023-05-20T15:27:56;19.40;78.90
31733;DHT22;18312;51.486;7.144;2023-05-20T15:30:24;19.00;79.90
31733;DHT22;18312;51.486;7.144;2023-05-20T15:32:50;19.00;80.40
31733;DHT22;18312;51.486;7.144;2023-05-20T15:35:18;19.00;80.80
31733;DHT22;18312;51.486;7.144;2023-05-20T15:37:46;19.10;80.90